sensor_id;sensor_type;location;lat;lon;timestamp;P1;durP1;ratioP1;P2;durP2;ratioP2
16179;SDS011;8196;49.428;10.906;2023-04-03T00:00:01;1.75;;;1.65;;
16179;SDS011;8196;49.428;10.906;2023-04-03T00:02:29;2.33;;;1.65;;
16179;SDS011;8196;49.428;10.906;2023-04-03T00:04:56;1.65;;;1.50;;
16179;SDS011;8196;49.428;10.906;2023-04-03T00:07:23;1.85;;;1.30;;
16179;SDS011;8196;49.428;10.906;2023-04-03T00:09:50;1.50;;;1.35;;
16179;SDS011;8196;49.428;10.906;2023-04-03T00:12:17;1.67;;;1.58;;
16179;SDS011;8196;49.428;10.906;2023-04-03T00:14:44;2.45;;;1.70;;
16179;SDS011;8196;49.428;10.906;2023-04-03T00:17:12;1.77;;;1.33;;
16179;SDS011;8196;49.428;10.906;2023-04-03T00:19:39;2.28;;;1.42;;
16179;SDS011;8196;49.428;10.906;2023-04-03T00:22:06;1.60;;;1.33;;
16179;SDS011;8196;49.428;10.906;2023-04-03T00:24:33;2.45;;;1.67;;
16179;SDS011;8196;49.428;10.906;2023-04-03T00:27:00;1.85;;;1.45;;
16179;SDS011;8196;49.428;10.906;2023-04-03T00:29:28;2.25;;;1.73;;
16179;SDS011;8196;49.428;10.906;2023-04-03T00:31:54;2.05;;;1.60;;
16179;SDS011;8196;49.428;10.906;2023-04-03T00:34:21;2.80;;;1.60;;
16179;SDS011;8196;49.428;10.906;2023-04-03T00:36:48;1.55;;;1.45;;
16179;SDS011;8196;49.428;10.906;2023-04-03T00:39:15;1.55;;;1.13;;
16179;SDS011;8196;49.428;10.906;2023-04-03T00:41:42;2.28;;;1.52;;
16179;SDS011;8196;49.428;10.906;2023-04-03T00:44:21;2.42;;;1.38;;
16179;SDS011;8196;49.428;10.906;2023-04-03T00:47:08;1.75;;;1.65;;
16179;SDS011;8196;49.428;10.906;2023-04-03T00:49:37;1.83;;;1.50;;
16179;SDS011;8196;49.428;10.906;2023-04-03T00:52:06;1.70;;;1.50;;
16179;SDS011;8196;49.428;10.906;2023-04-03T00:54:39;2.15;;;1.73;;
16179;SDS011;8196;49.428;10.906;2023-04-03T00:57:10;1.58;;;1.48;;
16179;SDS011;8196;49.428;10.906;2023-04-03T00:59:38;6.63;;;1.75;;
16179;SDS011;8196;49.428;10.906;2023-04-03T01:02:07;3.75;;;1.65;;
16179;SDS011;8196;49.428;10.906;2023-04-03T01:04:34;2.13;;;1.40;;
16179;SDS011;8196;49.428;10.906;2023-04-03T01:07:06;2.45;;;1.50;;
16179;SDS011;8196;49.428;10.906;2023-04-03T01:09:35;2.92;;;1.70;;
16179;SDS011;8196;49.428;10.906;2023-04-03T01:14:54;2.83;;;1.70;;
16179;SDS011;8196;49.428;10.906;2023-04-03T01:25:45;1.50;;;1.40;;
16179;SDS011;8196;49.428;10.906;2023-04-03T01:28:16;4.18;;;1.67;;
16179;SDS011;8196;49.428;10.906;2023-04-03T01:30:53;1.70;;;1.60;;
16179;SDS011;8196;49.428;10.906;2023-04-03T01:33:22;2.53;;;1.60;;
16179;SDS011;8196;49.428;10.906;2023-04-03T01:35:49;2.25;;;1.80;;
16179;SDS011;8196;49.428;10.906;2023-04-03T01:38:16;1.52;;;1.40;;
16179;SDS011;8196;49.428;10.906;2023-04-03T01:40:43;1.42;;;1.30;;
16179;SDS011;8196;49.428;10.906;2023-04-03T01:43:11;1.83;;;1.70;;
16179;SDS011;8196;49.428;10.906;2023-04-03T01:45:38;2.03;;;1.65;;
16179;SDS011;8196;49.428;10.906;2023-04-03T01:48:05;1.90;;;1.70;;
16179;SDS011;8196;49.428;10.906;2023-04-03T01:50:32;2.03;;;1.73;;
16179;SDS011;8196;49.428;10.906;2023-04-03T01:53:00;2.63;;;1.77;;
16179;SDS011;8196;49.428;10.906;2023-04-03T01:55:27;2.00;;;1.40;;
16179;SDS011;8196;49.428;10.906;2023-04-03T01:57:54;2.65;;;1.83;;
16179;SDS011;8196;49.428;10.906;2023-04-03T02:00:22;3.33;;;1.58;;
16179;SDS011;8196;49.428;10.906;2023-04-03T02:02:49;2.38;;;1.35;;
16179;SDS011;8196;49.428;10.906;2023-04-03T02:05:16;2.53;;;1.50;;
16179;SDS011;8196;49.428;10.906;2023-04-03T02:07:43;2.72;;;1.60;;
16179;SDS011;8196;49.428;10.906;2023-04-03T02:10:10;1.30;;;1.20;;
16179;SDS011;8196;49.428;10.906;2023-04-03T02:12:37;1.95;;;1.50;;
16179;SDS011;8196;49.428;10.906;2023-04-03T02:15:05;1.80;;;1.70;;
16179;SDS011;8196;49.428;10.906;2023-04-03T02:17:32;1.52;;;1.23;;
16179;SDS011;8196;49.428;10.906;2023-04-03T02:19:59;1.55;;;1.45;;
16179;SDS011;8196;49.428;10.906;2023-04-03T02:22:26;2.03;;;1.58;;
16179;SDS011;8196;49.428;10.906;2023-04-03T02:24:53;1.85;;;1.60;;
16179;SDS011;8196;49.428;10.906;2023-04-03T02:27:20;1.73;;;1.30;;
16179;SDS011;8196;49.428;10.906;2023-04-03T02:29:47;1.20;;;1.10;;
16179;SDS011;8196;49.428;10.906;2023-04-03T02:32:15;1.73;;;1.50;;
16179;SDS011;8196;49.428;10.906;2023-04-03T02:34:42;1.40;;;1.27;;
16179;SDS011;8196;49.428;10.906;2023-04-03T02:37:09;4.13;;;1.60;;
16179;SDS011;8196;49.428;10.906;2023-04-03T02:39:36;3.90;;;1.33;;
16179;SDS011;8196;49.428;10.906;2023-04-03T02:42:03;1.88;;;1.50;;
16179;SDS011;8196;49.428;10.906;2023-04-03T02:44:32;3.63;;;1.58;;
16179;SDS011;8196;49.428;10.906;2023-04-03T02:46:59;0.93;;;0.93;;
16179;SDS011;8196;49.428;10.906;2023-04-03T02:49:27;1.52;;;1.20;;
16179;SDS011;8196;49.428;10.906;2023-04-03T02:51:54;2.63;;;1.35;;
16179;SDS011;8196;49.428;10.906;2023-04-03T02:54:21;1.85;;;1.58;;
16179;SDS011;8196;49.428;10.906;2023-04-03T02:56:49;1.83;;;1.48;;
16179;SDS011;8196;49.428;10.906;2023-04-03T02:59:16;1.42;;;1.33;;
16179;SDS011;8196;49.428;10.906;2023-04-03T03:01:43;2.10;;;1.40;;
16179;SDS011;8196;49.428;10.906;2023-04-03T03:04:11;2.08;;;1.45;;
16179;SDS011;8196;49.428;10.906;2023-04-03T03:06:38;1.58;;;1.38;;
16179;SDS011;8196;49.428;10.906;2023-04-03T03:09:05;2.03;;;1.33;;
16179;SDS011;8196;49.428;10.906;2023-04-03T03:11:32;1.65;;;1.55;;
16179;SDS011;8196;49.428;10.906;2023-04-03T03:13:59;1.45;;;1.30;;
16179;SDS011;8196;49.428;10.906;2023-04-03T03:16:26;2.05;;;1.50;;
16179;SDS011;8196;49.428;10.906;2023-04-03T03:18:54;1.40;;;1.30;;
16179;SDS011;8196;49.428;10.906;2023-04-03T03:21:23;1.80;;;1.23;;
16179;SDS011;8196;49.428;10.906;2023-04-03T03:23:50;4.30;;;1.20;;
16179;SDS011;8196;49.428;10.906;2023-04-03T03:26:17;1.42;;;1.33;;
16179;SDS011;8196;49.428;10.906;2023-04-03T03:28:44;1.63;;;1.33;;
16179;SDS011;8196;49.428;10.906;2023-04-03T03:31:11;2.90;;;1.70;;
16179;SDS011;8196;49.428;10.906;2023-04-03T03:33:39;1.70;;;1.45;;
16179;SDS011;8196;49.428;10.906;2023-04-03T03:36:06;2.55;;;1.80;;
16179;SDS011;8196;49.428;10.906;2023-04-03T03:38:33;1.85;;;1.40;;
16179;SDS011;8196;49.428;10.906;2023-04-03T03:41:00;1.75;;;1.63;;
16179;SDS011;8196;49.428;10.906;2023-04-03T03:43:27;3.22;;;1.58;;
16179;SDS011;8196;49.428;10.906;2023-04-03T03:45:55;2.22;;;1.85;;
16179;SDS011;8196;49.428;10.906;2023-04-03T03:48:21;2.15;;;1.70;;
16179;SDS011;8196;49.428;10.906;2023-04-03T03:50:49;2.55;;;1.65;;
16179;SDS011;8196;49.428;10.906;2023-04-03T03:53:16;3.00;;;1.75;;
16179;SDS011;8196;49.428;10.906;2023-04-03T03:55:43;2.75;;;1.45;;
16179;SDS011;8196;49.428;10.906;2023-04-03T03:58:10;4.00;;;1.75;;
16179;SDS011;8196;49.428;10.906;2023-04-03T04:00:37;3.38;;;1.75;;
16179;SDS011;8196;49.428;10.906;2023-04-03T04:03:04;2.72;;;2.03;;
16179;SDS011;8196;49.428;10.906;2023-04-03T04:05:32;3.85;;;2.17;;
16179;SDS011;8196;49.428;10.906;2023-04-03T04:07:58;3.97;;;2.15;;
16179;SDS011;8196;49.428;10.906;2023-04-03T04:10:25;2.60;;;1.88;;
16179;SDS011;8196;49.428;10.906;2023-04-03T04:12:53;3.05;;;1.98;;
16179;SDS011;8196;49.428;10.906;2023-04-03T04:15:23;3.42;;;1.90;;
16179;SDS011;8196;49.428;10.906;2023-04-03T04:17:51;3.03;;;2.25;;
16179;SDS011;8196;49.428;10.906;2023-04-03T04:20:19;3.28;;;1.83;;
16179;SDS011;8196;49.428;10.906;2023-04-03T04:22:46;1.80;;;1.70;;
16179;SDS011;8196;49.428;10.906;2023-04-03T04:25:13;4.43;;;2.58;;
16179;SDS011;8196;49.428;10.906;2023-04-03T04:27:40;5.00;;;2.67;;
16179;SDS011;8196;49.428;10.906;2023-04-03T04:30:07;5.88;;;2.30;;
16179;SDS011;8196;49.428;10.906;2023-04-03T04:32:35;2.78;;;2.40;;
16179;SDS011;8196;49.428;10.906;2023-04-03T04:35:02;3.40;;;2.58;;
16179;SDS011;8196;49.428;10.906;2023-04-03T04:37:30;3.83;;;2.38;;
16179;SDS011;8196;49.428;10.906;2023-04-03T04:39:57;2.63;;;1.95;;
16179;SDS011;8196;49.428;10.906;2023-04-03T04:42:23;2.88;;;1.95;;
16179;SDS011;8196;49.428;10.906;2023-04-03T04:44:51;3.90;;;2.50;;
16179;SDS011;8196;49.428;10.906;2023-04-03T04:47:18;3.72;;;2.40;;
16179;SDS011;8196;49.428;10.906;2023-04-03T04:49:44;2.78;;;2.05;;
16179;SDS011;8196;49.428;10.906;2023-04-03T04:52:13;3.78;;;2.58;;
16179;SDS011;8196;49.428;10.906;2023-04-03T04:54:40;3.95;;;2.33;;
16179;SDS011;8196;49.428;10.906;2023-04-03T04:57:07;4.25;;;2.63;;
16179;SDS011;8196;49.428;10.906;2023-04-03T04:59:34;3.58;;;2.25;;
16179;SDS011;8196;49.428;10.906;2023-04-03T05:02:01;4.90;;;2.47;;
16179;SDS011;8196;49.428;10.906;2023-04-03T05:04:31;3.83;;;2.15;;
16179;SDS011;8196;49.428;10.906;2023-04-03T05:06:59;4.63;;;2.20;;
16179;SDS011;8196;49.428;10.906;2023-04-03T05:09:26;2.53;;;2.05;;
16179;SDS011;8196;49.428;10.906;2023-04-03T05:11:53;2.50;;;1.98;;
16179;SDS011;8196;49.428;10.906;2023-04-03T05:14:20;2.83;;;2.20;;
16179;SDS011;8196;49.428;10.906;2023-04-03T05:16:47;3.92;;;2.63;;
16179;SDS011;8196;49.428;10.906;2023-04-03T05:19:17;2.05;;;1.85;;
16179;SDS011;8196;49.428;10.906;2023-04-03T05:21:45;3.53;;;2.22;;
16179;SDS011;8196;49.428;10.906;2023-04-03T05:24:12;2.20;;;2.00;;
16179;SDS011;8196;49.428;10.906;2023-04-03T05:26:39;4.45;;;2.20;;
16179;SDS011;8196;49.428;10.906;2023-04-03T05:29:06;3.42;;;2.13;;
16179;SDS011;8196;49.428;10.906;2023-04-03T05:31:33;3.55;;;2.03;;
16179;SDS011;8196;49.428;10.906;2023-04-03T05:34:00;2.67;;;1.70;;
16179;SDS011;8196;49.428;10.906;2023-04-03T05:36:27;2.63;;;2.42;;
16179;SDS011;8196;49.428;10.906;2023-04-03T05:38:54;4.07;;;2.40;;
16179;SDS011;8196;49.428;10.906;2023-04-03T05:41:22;7.68;;;3.10;;
16179;SDS011;8196;49.428;10.906;2023-04-03T05:43:49;2.30;;;2.10;;
16179;SDS011;8196;49.428;10.906;2023-04-03T05:46:16;2.80;;;2.13;;
16179;SDS011;8196;49.428;10.906;2023-04-03T05:48:44;3.13;;;2.35;;
16179;SDS011;8196;49.428;10.906;2023-04-03T05:51:13;3.40;;;2.28;;
16179;SDS011;8196;49.428;10.906;2023-04-03T05:53:42;4.78;;;2.50;;
16179;SDS011;8196;49.428;10.906;2023-04-03T05:56:11;7.22;;;3.42;;
16179;SDS011;8196;49.428;10.906;2023-04-03T05:58:38;3.30;;;2.40;;
16179;SDS011;8196;49.428;10.906;2023-04-03T06:01:05;3.30;;;2.60;;
16179;SDS011;8196;49.428;10.906;2023-04-03T06:03:32;4.20;;;2.22;;
16179;SDS011;8196;49.428;10.906;2023-04-03T06:06:03;2.55;;;1.77;;
16179;SDS011;8196;49.428;10.906;2023-04-03T06:08:30;3.38;;;2.08;;
16179;SDS011;8196;49.428;10.906;2023-04-03T06:10:57;3.60;;;2.28;;
16179;SDS011;8196;49.428;10.906;2023-04-03T06:13:24;3.60;;;2.25;;
16179;SDS011;8196;49.428;10.906;2023-04-03T06:15:51;3.90;;;2.10;;
16179;SDS011;8196;49.428;10.906;2023-04-03T06:18:18;2.95;;;2.40;;
16179;SDS011;8196;49.428;10.906;2023-04-03T06:20:47;4.30;;;1.95;;
16179;SDS011;8196;49.428;10.906;2023-04-03T06:23:14;3.58;;;1.88;;
16179;SDS011;8196;49.428;10.906;2023-04-03T06:25:41;3.63;;;2.17;;
16179;SDS011;8196;49.428;10.906;2023-04-03T06:28:09;3.38;;;2.03;;
16179;SDS011;8196;49.428;10.906;2023-04-03T06:30:36;3.50;;;1.88;;
16179;SDS011;8196;49.428;10.906;2023-04-03T06:33:04;4.03;;;2.30;;
16179;SDS011;8196;49.428;10.906;2023-04-03T06:35:31;4.45;;;1.92;;
16179;SDS011;8196;49.428;10.906;2023-04-03T06:38:01;2.33;;;1.67;;
16179;SDS011;8196;49.428;10.906;2023-04-03T06:40:30;5.28;;;2.10;;
16179;SDS011;8196;49.428;10.906;2023-04-03T06:45:24;2.08;;;1.88;;
16179;SDS011;8196;49.428;10.906;2023-04-03T06:47:52;3.72;;;1.90;;
16179;SDS011;8196;49.428;10.906;2023-04-03T06:50:19;4.00;;;1.85;;
16179;SDS011;8196;49.428;10.906;2023-04-03T06:52:46;4.35;;;2.15;;
16179;SDS011;8196;49.428;10.906;2023-04-03T06:55:13;3.83;;;1.90;;
16179;SDS011;8196;49.428;10.906;2023-04-03T06:57:40;4.30;;;2.00;;
16179;SDS011;8196;49.428;10.906;2023-04-03T07:00:07;3.00;;;2.08;;
16179;SDS011;8196;49.428;10.906;2023-04-03T07:02:35;2.22;;;2.00;;
16179;SDS011;8196;49.428;10.906;2023-04-03T07:05:03;3.38;;;2.00;;
16179;SDS011;8196;49.428;10.906;2023-04-03T07:07:29;1.83;;;1.60;;
16179;SDS011;8196;49.428;10.906;2023-04-03T07:09:57;3.38;;;2.08;;
16179;SDS011;8196;49.428;10.906;2023-04-03T07:12:24;2.40;;;1.92;;
16179;SDS011;8196;49.428;10.906;2023-04-03T07:14:51;2.97;;;1.63;;
16179;SDS011;8196;49.428;10.906;2023-04-03T07:17:18;2.97;;;2.25;;
16179;SDS011;8196;49.428;10.906;2023-04-03T07:19:46;3.92;;;2.45;;
16179;SDS011;8196;49.428;10.906;2023-04-03T07:22:13;2.67;;;1.88;;
16179;SDS011;8196;49.428;10.906;2023-04-03T07:24:40;4.85;;;2.28;;
16179;SDS011;8196;49.428;10.906;2023-04-03T07:27:07;5.05;;;2.28;;
16179;SDS011;8196;49.428;10.906;2023-04-03T07:29:34;1.92;;;1.80;;
16179;SDS011;8196;49.428;10.906;2023-04-03T07:32:02;4.05;;;2.00;;
16179;SDS011;8196;49.428;10.906;2023-04-03T07:34:30;3.85;;;2.17;;
16179;SDS011;8196;49.428;10.906;2023-04-03T07:36:57;2.15;;;1.85;;
16179;SDS011;8196;49.428;10.906;2023-04-03T07:39:24;2.25;;;2.00;;
16179;SDS011;8196;49.428;10.906;2023-04-03T07:41:51;3.58;;;2.13;;
16179;SDS011;8196;49.428;10.906;2023-04-03T07:44:18;4.63;;;2.33;;
16179;SDS011;8196;49.428;10.906;2023-04-03T07:46:45;3.58;;;2.10;;
16179;SDS011;8196;49.428;10.906;2023-04-03T07:49:13;2.90;;;2.10;;
16179;SDS011;8196;49.428;10.906;2023-04-03T07:51:40;2.80;;;1.95;;
16179;SDS011;8196;49.428;10.906;2023-04-03T07:54:07;3.88;;;2.35;;
16179;SDS011;8196;49.428;10.906;2023-04-03T07:56:34;3.00;;;2.00;;
16179;SDS011;8196;49.428;10.906;2023-04-03T07:59:01;2.97;;;2.10;;
16179;SDS011;8196;49.428;10.906;2023-04-03T08:01:29;2.00;;;1.83;;
16179;SDS011;8196;49.428;10.906;2023-04-03T08:03:58;3.65;;;2.00;;
16179;SDS011;8196;49.428;10.906;2023-04-03T08:06:26;3.15;;;2.25;;
16179;SDS011;8196;49.428;10.906;2023-04-03T08:09:10;2.53;;;2.00;;
16179;SDS011;8196;49.428;10.906;2023-04-03T08:11:38;3.72;;;2.22;;
16179;SDS011;8196;49.428;10.906;2023-04-03T08:14:06;2.97;;;2.30;;
16179;SDS011;8196;49.428;10.906;2023-04-03T08:16:33;1.88;;;1.77;;
16179;SDS011;8196;49.428;10.906;2023-04-03T08:19:00;3.05;;;1.80;;
16179;SDS011;8196;49.428;10.906;2023-04-03T08:21:27;3.58;;;2.05;;
16179;SDS011;8196;49.428;10.906;2023-04-03T08:23:54;2.42;;;2.22;;
16179;SDS011;8196;49.428;10.906;2023-04-03T08:26:22;2.85;;;2.00;;
16179;SDS011;8196;49.428;10.906;2023-04-03T08:28:49;4.93;;;2.33;;
16179;SDS011;8196;49.428;10.906;2023-04-03T08:31:17;5.53;;;2.60;;
16179;SDS011;8196;49.428;10.906;2023-04-03T08:33:46;2.72;;;2.47;;
16179;SDS011;8196;49.428;10.906;2023-04-03T08:36:16;2.90;;;2.17;;
16179;SDS011;8196;49.428;10.906;2023-04-03T08:38:46;3.90;;;2.40;;
16179;SDS011;8196;49.428;10.906;2023-04-03T08:46:13;3.42;;;2.38;;
16179;SDS011;8196;49.428;10.906;2023-04-03T08:48:42;4.32;;;2.47;;
16179;SDS011;8196;49.428;10.906;2023-04-03T08:51:12;5.72;;;2.95;;
16179;SDS011;8196;49.428;10.906;2023-04-03T08:53:45;2.63;;;1.88;;
16179;SDS011;8196;49.428;10.906;2023-04-03T08:56:22;2.95;;;1.77;;
16179;SDS011;8196;49.428;10.906;2023-04-03T08:58:52;3.08;;;1.90;;
16179;SDS011;8196;49.428;10.906;2023-04-03T09:01:24;3.83;;;2.20;;
16179;SDS011;8196;49.428;10.906;2023-04-03T09:03:55;2.17;;;1.80;;
16179;SDS011;8196;49.428;10.906;2023-04-03T09:06:26;2.63;;;1.77;;
16179;SDS011;8196;49.428;10.906;2023-04-03T09:09:07;3.25;;;2.10;;
16179;SDS011;8196;49.428;10.906;2023-04-03T09:11:48;3.10;;;1.83;;
16179;SDS011;8196;49.428;10.906;2023-04-03T09:14:28;2.45;;;1.92;;
16179;SDS011;8196;49.428;10.906;2023-04-03T09:17:24;3.42;;;2.17;;
16179;SDS011;8196;49.428;10.906;2023-04-03T09:20:11;3.00;;;1.73;;
16179;SDS011;8196;49.428;10.906;2023-04-03T09:23:00;1.55;;;1.35;;
16179;SDS011;8196;49.428;10.906;2023-04-03T09:25:32;1.60;;;1.30;;
16179;SDS011;8196;49.428;10.906;2023-04-03T09:28:03;2.70;;;1.50;;
16179;SDS011;8196;49.428;10.906;2023-04-03T09:30:36;2.63;;;1.55;;
16179;SDS011;8196;49.428;10.906;2023-04-03T09:33:04;1.67;;;1.50;;
16179;SDS011;8196;49.428;10.906;2023-04-03T09:35:34;4.75;;;1.60;;
16179;SDS011;8196;49.428;10.906;2023-04-03T09:40:42;2.45;;;1.50;;
16179;SDS011;8196;49.428;10.906;2023-04-03T09:43:20;2.75;;;1.63;;
16179;SDS011;8196;49.428;10.906;2023-04-03T09:45:50;2.05;;;1.55;;
16179;SDS011;8196;49.428;10.906;2023-04-03T09:48:19;2.55;;;1.90;;
16179;SDS011;8196;49.428;10.906;2023-04-03T09:53:26;3.47;;;1.70;;
16179;SDS011;8196;49.428;10.906;2023-04-03T09:55:54;2.75;;;1.92;;
16179;SDS011;8196;49.428;10.906;2023-04-03T09:58:23;5.68;;;1.80;;
16179;SDS011;8196;49.428;10.906;2023-04-03T10:00:58;2.33;;;1.55;;
16179;SDS011;8196;49.428;10.906;2023-04-03T10:03:29;2.25;;;2.05;;
16179;SDS011;8196;49.428;10.906;2023-04-03T10:05:59;4.35;;;2.45;;
16179;SDS011;8196;49.428;10.906;2023-04-03T10:08:28;3.88;;;1.75;;
16179;SDS011;8196;49.428;10.906;2023-04-03T10:13:53;2.60;;;1.90;;
16179;SDS011;8196;49.428;10.906;2023-04-03T10:16:24;2.50;;;1.52;;
16179;SDS011;8196;49.428;10.906;2023-04-03T10:18:58;2.15;;;1.50;;
16179;SDS011;8196;49.428;10.906;2023-04-03T10:21:55;3.25;;;1.70;;
16179;SDS011;8196;49.428;10.906;2023-04-03T10:24:28;3.22;;;1.70;;
16179;SDS011;8196;49.428;10.906;2023-04-03T10:35:01;2.50;;;1.90;;
16179;SDS011;8196;49.428;10.906;2023-04-03T10:43:09;2.13;;;1.70;;
16179;SDS011;8196;49.428;10.906;2023-04-03T10:53:34;2.83;;;1.50;;
16179;SDS011;8196;49.428;10.906;2023-04-03T10:58:48;2.50;;;1.65;;
16179;SDS011;8196;49.428;10.906;2023-04-03T11:01:21;2.90;;;1.50;;
16179;SDS011;8196;49.428;10.906;2023-04-03T11:03:54;1.98;;;1.42;;
16179;SDS011;8196;49.428;10.906;2023-04-03T11:06:24;2.60;;;1.50;;
16179;SDS011;8196;49.428;10.906;2023-04-03T11:09:02;1.52;;;1.40;;
16179;SDS011;8196;49.428;10.906;2023-04-03T11:11:34;1.70;;;1.45;;
16179;SDS011;8196;49.428;10.906;2023-04-03T11:16:33;3.70;;;2.13;;
16179;SDS011;8196;49.428;10.906;2023-04-03T11:19:27;3.08;;;1.80;;
16179;SDS011;8196;49.428;10.906;2023-04-03T11:25:02;1.65;;;1.33;;
16179;SDS011;8196;49.428;10.906;2023-04-03T11:27:35;7.25;;;1.80;;
16179;SDS011;8196;49.428;10.906;2023-04-03T11:30:27;2.25;;;1.42;;
16179;SDS011;8196;49.428;10.906;2023-04-03T11:33:03;2.67;;;1.70;;
16179;SDS011;8196;49.428;10.906;2023-04-03T11:35:48;2.65;;;1.45;;
16179;SDS011;8196;49.428;10.906;2023-04-03T11:38:23;1.42;;;1.33;;
16179;SDS011;8196;49.428;10.906;2023-04-03T11:40:53;2.30;;;1.63;;
16179;SDS011;8196;49.428;10.906;2023-04-03T11:43:22;3.33;;;1.70;;
16179;SDS011;8196;49.428;10.906;2023-04-03T11:45:53;1.80;;;1.40;;
16179;SDS011;8196;49.428;10.906;2023-04-03T11:53:53;2.63;;;1.67;;
16179;SDS011;8196;49.428;10.906;2023-04-03T12:01:56;1.40;;;1.30;;
16179;SDS011;8196;49.428;10.906;2023-04-03T12:04:25;2.42;;;1.50;;
16179;SDS011;8196;49.428;10.906;2023-04-03T12:07:11;2.65;;;1.50;;
16179;SDS011;8196;49.428;10.906;2023-04-03T12:17:49;1.77;;;1.55;;
16179;SDS011;8196;49.428;10.906;2023-04-03T12:23:08;2.78;;;1.95;;
16179;SDS011;8196;49.428;10.906;2023-04-03T12:25:50;2.03;;;1.67;;
16179;SDS011;8196;49.428;10.906;2023-04-03T12:28:17;1.65;;;1.38;;
16179;SDS011;8196;49.428;10.906;2023-04-03T12:30:44;2.63;;;1.20;;
16179;SDS011;8196;49.428;10.906;2023-04-03T12:33:18;2.33;;;1.40;;
16179;SDS011;8196;49.428;10.906;2023-04-03T12:36:01;1.65;;;1.38;;
16179;SDS011;8196;49.428;10.906;2023-04-03T12:38:48;2.22;;;1.40;;
16179;SDS011;8196;49.428;10.906;2023-04-03T12:44:00;2.15;;;1.35;;
16179;SDS011;8196;49.428;10.906;2023-04-03T12:46:37;1.80;;;1.30;;
16179;SDS011;8196;49.428;10.906;2023-04-03T12:49:22;2.88;;;1.67;;
16179;SDS011;8196;49.428;10.906;2023-04-03T12:55:00;2.15;;;1.63;;
16179;SDS011;8196;49.428;10.906;2023-04-03T12:57:30;1.50;;;1.40;;
16179;SDS011;8196;49.428;10.906;2023-04-03T12:59:59;2.40;;;1.52;;
16179;SDS011;8196;49.428;10.906;2023-04-03T13:02:27;1.25;;;1.15;;
16179;SDS011;8196;49.428;10.906;2023-04-03T13:09:58;1.60;;;1.50;;
16179;SDS011;8196;49.428;10.906;2023-04-03T13:12:27;1.50;;;1.30;;
16179;SDS011;8196;49.428;10.906;2023-04-03T13:14:58;1.70;;;1.30;;
16179;SDS011;8196;49.428;10.906;2023-04-03T13:17:25;1.42;;;1.15;;
16179;SDS011;8196;49.428;10.906;2023-04-03T13:19:53;2.08;;;1.45;;
16179;SDS011;8196;49.428;10.906;2023-04-03T13:22:25;1.55;;;1.20;;
16179;SDS011;8196;49.428;10.906;2023-04-03T13:24:57;2.17;;;1.20;;
16179;SDS011;8196;49.428;10.906;2023-04-03T13:27:29;2.53;;;1.20;;
16179;SDS011;8196;49.428;10.906;2023-04-03T13:29:57;2.22;;;1.15;;
16179;SDS011;8196;49.428;10.906;2023-04-03T13:32:27;1.00;;;1.00;;
16179;SDS011;8196;49.428;10.906;2023-04-03T13:34:56;1.33;;;1.10;;
16179;SDS011;8196;49.428;10.906;2023-04-03T13:37:31;2.20;;;1.48;;
16179;SDS011;8196;49.428;10.906;2023-04-03T13:40:02;2.55;;;1.60;;
16179;SDS011;8196;49.428;10.906;2023-04-03T13:42:38;1.63;;;1.25;;
16179;SDS011;8196;49.428;10.906;2023-04-03T13:45:09;2.90;;;1.58;;
16179;SDS011;8196;49.428;10.906;2023-04-03T13:47:40;1.73;;;1.40;;
16179;SDS011;8196;49.428;10.906;2023-04-03T13:52:42;2.10;;;1.80;;
16179;SDS011;8196;49.428;10.906;2023-04-03T13:55:15;1.70;;;1.50;;
16179;SDS011;8196;49.428;10.906;2023-04-03T13:57:59;2.35;;;1.63;;
16179;SDS011;8196;49.428;10.906;2023-04-03T14:03:18;2.40;;;1.38;;
16179;SDS011;8196;49.428;10.906;2023-04-03T14:05:47;2.63;;;1.42;;
16179;SDS011;8196;49.428;10.906;2023-04-03T14:08:14;2.00;;;1.50;;
16179;SDS011;8196;49.428;10.906;2023-04-03T14:10:42;1.75;;;1.50;;
16179;SDS011;8196;49.428;10.906;2023-04-03T14:13:11;2.17;;;1.60;;
16179;SDS011;8196;49.428;10.906;2023-04-03T14:15:39;2.58;;;1.80;;
16179;SDS011;8196;49.428;10.906;2023-04-03T14:18:09;3.42;;;1.70;;
16179;SDS011;8196;49.428;10.906;2023-04-03T14:20:36;2.15;;;1.60;;
16179;SDS011;8196;49.428;10.906;2023-04-03T14:23:03;2.92;;;1.70;;
16179;SDS011;8196;49.428;10.906;2023-04-03T14:25:30;2.13;;;1.60;;
16179;SDS011;8196;49.428;10.906;2023-04-03T14:27:57;4.00;;;1.65;;
16179;SDS011;8196;49.428;10.906;2023-04-03T14:30:28;2.23;;;1.67;;
16179;SDS011;8196;49.428;10.906;2023-04-03T14:32:57;2.55;;;1.85;;
16179;SDS011;8196;49.428;10.906;2023-04-03T14:35:25;2.35;;;2.03;;
16179;SDS011;8196;49.428;10.906;2023-04-03T14:37:55;3.17;;;2.10;;
16179;SDS011;8196;49.428;10.906;2023-04-03T14:40:23;3.00;;;1.90;;
16179;SDS011;8196;49.428;10.906;2023-04-03T14:42:52;2.00;;;1.80;;
16179;SDS011;8196;49.428;10.906;2023-04-03T14:45:21;2.22;;;1.45;;
16179;SDS011;8196;49.428;10.906;2023-04-03T14:47:49;2.92;;;1.83;;
16179;SDS011;8196;49.428;10.906;2023-04-03T14:50:20;2.85;;;1.60;;
16179;SDS011;8196;49.428;10.906;2023-04-03T14:52:50;2.10;;;1.65;;
16179;SDS011;8196;49.428;10.906;2023-04-03T14:55:18;2.83;;;1.80;;
16179;SDS011;8196;49.428;10.906;2023-04-03T14:57:47;1.75;;;1.60;;
16179;SDS011;8196;49.428;10.906;2023-04-03T15:00:15;2.75;;;2.05;;
16179;SDS011;8196;49.428;10.906;2023-04-03T15:02:43;3.80;;;1.55;;
16179;SDS011;8196;49.428;10.906;2023-04-03T15:05:14;1.93;;;1.70;;
16179;SDS011;8196;49.428;10.906;2023-04-03T15:07:43;2.58;;;1.65;;
16179;SDS011;8196;49.428;10.906;2023-04-03T15:12:44;2.57;;;1.90;;
16179;SDS011;8196;49.428;10.906;2023-04-03T15:15:12;3.60;;;1.70;;
16179;SDS011;8196;49.428;10.906;2023-04-03T15:17:39;3.03;;;1.40;;
16179;SDS011;8196;49.428;10.906;2023-04-03T15:20:15;1.52;;;1.40;;
16179;SDS011;8196;49.428;10.906;2023-04-03T15:22:43;1.95;;;1.40;;
16179;SDS011;8196;49.428;10.906;2023-04-03T15:25:10;1.88;;;1.40;;
16179;SDS011;8196;49.428;10.906;2023-04-03T15:27:37;2.13;;;1.63;;
16179;SDS011;8196;49.428;10.906;2023-04-03T15:30:05;3.00;;;1.40;;
16179;SDS011;8196;49.428;10.906;2023-04-03T15:32:37;2.53;;;1.60;;
16179;SDS011;8196;49.428;10.906;2023-04-03T15:35:04;2.10;;;1.40;;
16179;SDS011;8196;49.428;10.906;2023-04-03T15:37:32;3.50;;;1.40;;
16179;SDS011;8196;49.428;10.906;2023-04-03T15:39:58;2.38;;;1.50;;
16179;SDS011;8196;49.428;10.906;2023-04-03T15:42:25;2.53;;;1.30;;
16179;SDS011;8196;49.428;10.906;2023-04-03T15:44:52;2.63;;;1.50;;
16179;SDS011;8196;49.428;10.906;2023-04-03T15:47:19;2.22;;;1.55;;
16179;SDS011;8196;49.428;10.906;2023-04-03T15:49:46;2.78;;;1.70;;
16179;SDS011;8196;49.428;10.906;2023-04-03T15:52:12;3.53;;;1.65;;
16179;SDS011;8196;49.428;10.906;2023-04-03T15:54:39;1.83;;;1.40;;
16179;SDS011;8196;49.428;10.906;2023-04-03T15:57:06;2.10;;;1.50;;
16179;SDS011;8196;49.428;10.906;2023-04-03T15:59:33;2.77;;;1.30;;
16179;SDS011;8196;49.428;10.906;2023-04-03T16:02:00;2.13;;;1.42;;
16179;SDS011;8196;49.428;10.906;2023-04-03T16:04:28;1.58;;;1.20;;
16179;SDS011;8196;49.428;10.906;2023-04-03T16:06:55;2.58;;;1.50;;
16179;SDS011;8196;49.428;10.906;2023-04-03T16:09:22;2.43;;;1.70;;
16179;SDS011;8196;49.428;10.906;2023-04-03T16:11:49;2.70;;;1.50;;
16179;SDS011;8196;49.428;10.906;2023-04-03T16:14:17;1.90;;;1.50;;
16179;SDS011;8196;49.428;10.906;2023-04-03T16:16:44;2.95;;;1.92;;
16179;SDS011;8196;49.428;10.906;2023-04-03T16:19:11;2.47;;;1.37;;
16179;SDS011;8196;49.428;10.906;2023-04-03T16:21:39;2.78;;;1.38;;
16179;SDS011;8196;49.428;10.906;2023-04-03T16:24:06;2.47;;;1.60;;
16179;SDS011;8196;49.428;10.906;2023-04-03T16:26:33;2.95;;;1.40;;
16179;SDS011;8196;49.428;10.906;2023-04-03T16:29:00;3.67;;;1.60;;
16179;SDS011;8196;49.428;10.906;2023-04-03T16:31:28;1.80;;;1.42;;
16179;SDS011;8196;49.428;10.906;2023-04-03T16:33:55;3.03;;;1.70;;
16179;SDS011;8196;49.428;10.906;2023-04-03T16:36:23;2.33;;;1.67;;